createdAt,value
2022-08-30T00:00:41.392Z,91.30
2022-08-30T00:03:14.546Z,90.80
2022-08-30T00:05:43.159Z,90.80
2022-08-30T00:08:11.513Z,91.10
2022-08-30T00:10:40.768Z,91.10
2022-08-30T00:13:12.042Z,90.60
2022-08-30T00:15:40.407Z,90.60
2022-08-30T00:18:10.622Z,91.00
2022-08-30T00:20:39.493Z,91.10
2022-08-30T00:23:08.043Z,91.30
2022-08-30T00:25:36.074Z,91.50
2022-08-30T00:28:04.654Z,91.20
2022-08-30T00:30:32.710Z,92.20
2022-08-30T00:33:00.696Z,92.50
2022-08-30T00:35:30.295Z,91.70
2022-08-30T00:37:58.835Z,91.30
2022-08-30T00:40:28.505Z,91.40
2022-08-30T00:42:59.560Z,91.70
2022-08-30T00:45:30.914Z,91.60
2022-08-30T00:47:59.423Z,91.70
2022-08-30T00:50:33.550Z,91.70
2022-08-30T00:53:05.198Z,92.00
2022-08-30T00:55:33.603Z,91.60
2022-08-30T00:58:06.218Z,90.70
2022-08-30T01:00:34.700Z,90.60
2022-08-30T01:03:02.826Z,90.50
2022-08-30T01:05:32.707Z,90.60
2022-08-30T01:08:00.914Z,91.00
2022-08-30T01:10:28.897Z,91.20
2022-08-30T01:12:57.077Z,91.60
2022-08-30T01:15:25.823Z,91.70
2022-08-30T01:17:56.044Z,92.10
2022-08-30T01:20:28.271Z,92.40
2022-08-30T01:23:05.268Z,92.50
2022-08-30T01:25:37.337Z,93.00
2022-08-30T01:28:08.264Z,92.90
2022-08-30T01:30:38.864Z,93.10
2022-08-30T01:33:08.914Z,93.70
2022-08-30T01:35:44.230Z,93.60
2022-08-30T01:38:17.736Z,93.80
2022-08-30T01:40:45.768Z,93.90
2022-08-30T01:43:16.446Z,94.30
2022-08-30T01:45:44.625Z,94.30
2022-08-30T01:48:13.221Z,94.60
2022-08-30T01:50:42.109Z,94.70
2022-08-30T01:53:13.272Z,94.90
2022-08-30T01:55:41.450Z,97.30
2022-08-30T01:58:09.412Z,95.90
2022-08-30T02:00:38.090Z,96.10
2022-08-30T02:03:06.591Z,96.10
2022-08-30T02:05:35.232Z,96.60
2022-08-30T02:08:03.521Z,96.90
2022-08-30T02:10:33.503Z,97.10
2022-08-30T02:13:01.797Z,97.10
2022-08-30T02:15:31.251Z,97.10
2022-08-30T02:18:10.589Z,97.80
2022-08-30T02:20:40.316Z,98.30
2022-08-30T02:23:08.644Z,99.10
2022-08-30T02:25:37.973Z,99.00
2022-08-30T02:28:06.210Z,99.20
2022-08-30T02:30:34.784Z,99.40
2022-08-30T02:33:02.781Z,99.30
2022-08-30T02:35:30.842Z,99.30
2022-08-30T02:37:58.833Z,99.30
2022-08-30T02:40:26.839Z,99.70
2022-08-30T02:42:56.973Z,99.90
2022-08-30T02:45:25.590Z,99.70
2022-08-30T02:47:53.932Z,99.30
2022-08-30T02:50:22.007Z,98.60
2022-08-30T02:52:50.070Z,99.20
2022-08-30T02:55:19.521Z,99.80
2022-08-30T02:57:47.651Z,99.30
2022-08-30T03:00:20.394Z,99.20
2022-08-30T03:02:49.268Z,99.30
2022-08-30T03:05:18.644Z,99.60
2022-08-30T03:07:47.539Z,99.80
2022-08-30T03:10:16.478Z,99.80
2022-08-30T03:12:45.061Z,99.60
2022-08-30T03:15:14.832Z,99.90
2022-08-30T03:17:44.506Z,99.90
2022-08-30T03:20:12.872Z,99.90
2022-08-30T03:22:40.968Z,99.90
2022-08-30T03:25:09.681Z,99.90
2022-08-30T03:27:37.855Z,99.90
2022-08-30T03:30:07.078Z,99.90
2022-08-30T03:32:35.065Z,99.90
2022-08-30T03:35:05.188Z,99.90
2022-08-30T03:37:33.136Z,99.90
2022-08-30T03:40:01.130Z,99.90
2022-08-30T03:42:30.122Z,99.90
2022-08-30T03:44:58.073Z,99.90
2022-08-30T03:47:26.025Z,99.90
2022-08-30T03:49:53.992Z,99.90
2022-08-30T03:52:23.396Z,99.90
2022-08-30T03:54:51.514Z,99.90
2022-08-30T03:57:20.162Z,99.90
2022-08-30T03:59:52.428Z,99.90
2022-08-30T04:02:20.805Z,99.90
2022-08-30T04:04:48.832Z,99.90
2022-08-30T04:07:16.957Z,99.90
2022-08-30T04:09:47.245Z,99.90
2022-08-30T04:12:18.383Z,99.90
2022-08-30T04:14:51.188Z,99.90
2022-08-30T04:17:19.278Z,99.90
2022-08-30T04:19:47.268Z,99.90
2022-08-30T04:22:15.335Z,99.90
2022-08-30T04:24:43.278Z,99.90
2022-08-30T04:27:12.586Z,99.90
2022-08-30T04:29:40.560Z,99.90
2022-08-30T04:32:08.580Z,99.90
2022-08-30T04:34:36.801Z,99.90
2022-08-30T04:37:04.847Z,99.90
2022-08-30T04:39:33.414Z,99.90
2022-08-30T04:42:03.227Z,99.90
2022-08-30T04:44:33.438Z,99.90
2022-08-30T04:47:02.375Z,99.90
2022-08-30T04:49:31.342Z,99.90
2022-08-30T04:51:59.290Z,99.90
2022-08-30T04:54:27.305Z,99.90
2022-08-30T04:56:55.639Z,99.90
2022-08-30T04:59:23.717Z,99.90
2022-08-30T05:01:53.085Z,99.90
2022-08-30T05:04:21.121Z,99.90
2022-08-30T05:06:49.395Z,99.90
2022-08-30T05:09:17.573Z,99.90
2022-08-30T05:11:46.386Z,99.90
2022-08-30T05:14:14.454Z,99.90
2022-08-30T05:16:42.756Z,99.90
2022-08-30T05:19:12.297Z,99.90
2022-08-30T05:21:41.458Z,99.90
2022-08-30T05:24:09.642Z,99.90
2022-08-30T05:26:39.344Z,99.90
2022-08-30T05:29:07.358Z,99.90
2022-08-30T05:31:37.092Z,99.90
2022-08-30T05:34:05.582Z,99.90
2022-08-30T05:36:37.097Z,99.90
2022-08-30T05:39:06.051Z,99.90
2022-08-30T05:41:34.436Z,99.90
2022-08-30T05:44:06.713Z,99.90
2022-08-30T05:46:35.381Z,99.90
2022-08-30T05:49:05.070Z,99.90
2022-08-30T05:51:35.899Z,99.90
2022-08-30T05:54:12.663Z,99.90
2022-08-30T05:56:42.456Z,99.90
2022-08-30T05:59:10.799Z,99.90
2022-08-30T06:01:41.604Z,99.90
2022-08-30T06:04:11.858Z,99.90
2022-08-30T06:06:42.843Z,99.90
2022-08-30T06:09:12.714Z,99.90
2022-08-30T06:11:40.753Z,99.80
2022-08-30T06:14:09.375Z,99.40
2022-08-30T06:16:39.789Z,99.10
2022-08-30T06:19:10.839Z,98.70
2022-08-30T06:21:41.958Z,98.40
2022-08-30T06:24:12.334Z,98.20
2022-08-30T06:26:42.531Z,98.00
2022-08-30T06:29:11.309Z,98.00
2022-08-30T06:31:39.703Z,97.80
2022-08-30T06:34:08.065Z,97.40
2022-08-30T06:36:36.371Z,97.40
2022-08-30T06:39:06.470Z,97.30
2022-08-30T06:41:36.412Z,96.90
2022-08-30T06:44:09.482Z,96.70
2022-08-30T06:46:39.420Z,96.20
2022-08-30T06:49:07.838Z,95.50
2022-08-30T06:51:39.679Z,95.30
2022-08-30T06:54:12.013Z,94.10
2022-08-30T06:56:55.174Z,93.20
2022-08-30T06:59:26.847Z,92.60
2022-08-30T07:01:55.373Z,92.20
2022-08-30T07:04:23.401Z,91.30
2022-08-30T07:06:51.668Z,91.40
2022-08-30T07:09:23.027Z,91.20
2022-08-30T07:11:51.982Z,90.80
2022-08-30T07:14:20.402Z,90.60
2022-08-30T07:16:51.088Z,90.00
2022-08-30T07:19:20.760Z,89.60
2022-08-30T07:21:50.631Z,88.20
2022-08-30T07:24:20.685Z,86.50
2022-08-30T07:26:51.926Z,86.30
2022-08-30T07:29:21.666Z,82.40
2022-08-30T07:31:49.859Z,77.20
2022-08-30T07:34:19.252Z,70.80
2022-08-30T07:36:48.538Z,65.40
2022-08-30T07:39:16.481Z,61.40
2022-08-30T07:41:46.035Z,60.30
2022-08-30T07:44:13.979Z,62.80
2022-08-30T07:46:42.499Z,65.00
2022-08-30T07:49:12.956Z,65.90
2022-08-30T07:51:41.641Z,67.00
2022-08-30T07:54:09.990Z,67.00
2022-08-30T07:56:37.997Z,64.80
2022-08-30T07:59:07.345Z,60.70
2022-08-30T08:01:35.446Z,56.30
2022-08-30T08:04:04.013Z,52.50
2022-08-30T08:06:34.960Z,48.20
2022-08-30T08:09:03.247Z,46.20
2022-08-30T08:11:33.904Z,46.60
2022-08-30T08:14:03.043Z,46.40
2022-08-30T08:16:34.474Z,46.60
2022-08-30T08:19:02.702Z,44.90
2022-08-30T08:21:31.639Z,43.30
2022-08-30T08:23:59.688Z,42.20
2022-08-30T08:26:27.650Z,41.80
2022-08-30T08:28:55.691Z,40.70
2022-08-30T08:31:27.311Z,39.20
2022-08-30T08:36:34.840Z,37.70
2022-08-30T08:39:03.470Z,38.00
2022-08-30T08:41:41.149Z,38.20
2022-08-30T08:44:15.640Z,38.30
2022-08-30T08:46:53.467Z,39.90
2022-08-30T08:49:22.805Z,39.80
2022-08-30T08:52:08.406Z,40.40
2022-08-30T08:54:43.056Z,39.90
2022-08-30T08:58:00.779Z,40.00
2022-08-30T09:00:29.951Z,40.00
2022-08-30T09:03:00.824Z,40.90
2022-08-30T09:05:36.428Z,41.70
2022-08-30T09:08:10.149Z,41.60
2022-08-30T09:10:50.539Z,42.10
2022-08-30T09:13:22.815Z,41.70
2022-08-30T09:15:55.157Z,41.10
2022-08-30T09:18:41.916Z,41.00
2022-08-30T09:21:21.588Z,40.90
2022-08-30T09:23:51.980Z,40.40
2022-08-30T09:26:30.652Z,39.80
2022-08-30T09:29:00.002Z,40.10
2022-08-30T09:31:30.436Z,40.40
2022-08-30T09:34:03.205Z,41.50
2022-08-30T09:36:36.267Z,40.80
2022-08-30T09:39:06.881Z,41.50
2022-08-30T09:41:42.480Z,40.90
2022-08-30T09:44:15.833Z,39.30
2022-08-30T09:46:50.011Z,39.80
2022-08-30T09:49:40.519Z,40.10
2022-08-30T09:52:18.495Z,39.20
2022-08-30T09:55:01.112Z,38.90
2022-08-30T09:57:37.744Z,38.50
2022-08-30T10:00:09.297Z,38.50
2022-08-30T10:02:59.867Z,37.70
2022-08-30T10:05:36.135Z,37.70
2022-08-30T10:08:13.955Z,37.10
2022-08-30T10:10:51.445Z,37.30
2022-08-30T10:13:37.986Z,37.30
2022-08-30T10:16:16.480Z,37.20
2022-08-30T10:18:53.917Z,37.70
2022-08-30T10:21:29.638Z,38.70
2022-08-30T10:24:04.156Z,38.00
2022-08-30T10:26:35.873Z,37.60
2022-08-30T10:29:09.939Z,36.50
2022-08-30T10:31:45.128Z,36.90
2022-08-30T10:34:18.640Z,35.90
2022-08-30T10:36:53.713Z,35.00
2022-08-30T10:39:26.432Z,36.10
2022-08-30T10:42:04.022Z,37.00
2022-08-30T10:44:41.231Z,38.20
2022-08-30T10:47:23.265Z,38.90
2022-08-30T10:49:58.466Z,40.20
2022-08-30T10:52:32.361Z,40.10
2022-08-30T10:55:07.101Z,40.60
2022-08-30T10:57:35.375Z,41.50
2022-08-30T11:00:07.582Z,41.80
2022-08-30T11:03:08.378Z,41.50
2022-08-30T11:05:59.344Z,41.50
2022-08-30T11:08:45.924Z,41.20
2022-08-30T11:11:27.052Z,41.30
2022-08-30T11:13:57.811Z,42.10
2022-08-30T11:16:36.933Z,42.20
2022-08-30T11:19:14.531Z,41.60
2022-08-30T11:21:45.486Z,41.70
2022-08-30T11:24:16.330Z,42.20
2022-08-30T11:27:01.667Z,41.90
2022-08-30T11:29:42.502Z,41.80
2022-08-30T11:32:39.987Z,41.40
2022-08-30T11:35:11.229Z,41.40
2022-08-30T11:37:42.353Z,40.80
2022-08-30T11:40:27.708Z,41.30
2022-08-30T11:42:57.695Z,41.60
2022-08-30T11:45:52.208Z,41.90
2022-08-30T11:48:53.457Z,42.20
2022-08-30T11:52:23.715Z,41.50
2022-08-30T11:54:59.967Z,41.50
2022-08-30T11:57:36.846Z,41.20
2022-08-30T12:00:12.936Z,40.90
2022-08-30T12:02:47.453Z,40.70
2022-08-30T12:05:51.505Z,40.70
2022-08-30T12:08:47.429Z,40.80
2022-08-30T12:11:55.014Z,40.50
2022-08-30T12:14:54.778Z,40.60
2022-08-30T12:17:50.619Z,40.60
2022-08-30T12:20:24.068Z,40.70
2022-08-30T12:22:53.241Z,40.30
2022-08-30T12:25:29.703Z,39.90
2022-08-30T12:28:16.684Z,40.10
2022-08-30T12:30:46.457Z,39.90
2022-08-30T12:33:28.957Z,40.20
2022-08-30T12:35:59.326Z,40.20
2022-08-30T12:38:28.274Z,40.10
2022-08-30T12:40:59.137Z,40.10
2022-08-30T12:43:40.381Z,39.50
2022-08-30T12:46:15.193Z,38.90
2022-08-30T12:48:45.932Z,39.50
2022-08-30T12:51:29.644Z,39.10
2022-08-30T12:54:06.915Z,39.30
2022-08-30T12:56:50.563Z,39.10
2022-08-30T13:00:01.850Z,39.00
2022-08-30T13:02:45.308Z,39.00
2022-08-30T13:05:47.882Z,38.60
2022-08-30T13:08:22.383Z,38.80
2022-08-30T13:11:02.308Z,38.90
2022-08-30T13:13:44.986Z,38.70
2022-08-30T13:16:26.313Z,39.00
2022-08-30T13:19:16.880Z,38.80
2022-08-30T13:21:52.868Z,38.50
2022-08-30T13:24:25.239Z,38.20
2022-08-30T13:26:55.582Z,37.50
2022-08-30T13:29:27.986Z,37.50
2022-08-30T13:31:57.134Z,37.70
2022-08-30T13:34:25.634Z,37.70
2022-08-30T13:36:59.895Z,37.60
2022-08-30T13:39:28.038Z,38.10
2022-08-30T13:42:31.296Z,38.20
2022-08-30T13:44:44.429Z,37.90
2022-08-30T13:47:32.861Z,37.60
2022-08-30T13:50:01.691Z,37.60
2022-08-30T13:52:31.116Z,37.30
2022-08-30T13:54:59.607Z,37.50
2022-08-30T14:00:21.832Z,38.00
2022-08-30T14:02:54.845Z,37.40
2022-08-30T14:05:47.849Z,37.40
2022-08-30T14:11:05.050Z,37.60
2022-08-30T14:13:33.204Z,38.10
2022-08-30T14:18:52.191Z,39.20
2022-08-30T14:21:24.702Z,39.70
2022-08-30T14:23:55.857Z,39.80
2022-08-30T14:26:32.740Z,39.60
2022-08-30T14:29:02.733Z,39.20
2022-08-30T14:31:32.807Z,38.30
2022-08-30T14:34:01.754Z,38.10
2022-08-30T14:36:31.959Z,38.70
2022-08-30T14:39:01.672Z,38.50
2022-08-30T14:41:29.719Z,38.90
2022-08-30T14:43:57.780Z,39.50
2022-08-30T14:46:26.840Z,39.30
2022-08-30T14:48:55.453Z,39.30
2022-08-30T14:51:24.788Z,39.10
2022-08-30T14:53:54.204Z,39.00
2022-08-30T14:56:24.895Z,39.30
2022-08-30T14:59:00.127Z,38.70
2022-08-30T15:02:05.362Z,39.20
2022-08-30T15:04:33.368Z,38.60
2022-08-30T15:07:01.487Z,38.60
2022-08-30T15:09:32.706Z,38.40
2022-08-30T15:12:03.823Z,38.50
2022-08-30T15:14:32.871Z,38.40
2022-08-30T15:17:02.676Z,38.70
2022-08-30T15:19:31.533Z,39.10
2022-08-30T15:22:02.278Z,38.70
2022-08-30T15:24:31.075Z,38.80
2022-08-30T15:27:00.111Z,39.20
2022-08-30T15:29:31.668Z,38.60
2022-08-30T15:32:00.952Z,38.80
2022-08-30T15:34:29.428Z,38.60
2022-08-30T15:36:58.262Z,39.00
2022-08-30T15:39:26.829Z,39.10
2022-08-30T15:42:00.286Z,38.50
2022-08-30T15:44:31.300Z,38.50
2022-08-30T15:47:00.128Z,38.60
2022-08-30T15:49:28.342Z,39.90
2022-08-30T15:52:01.731Z,40.00
2022-08-30T15:54:29.999Z,40.00
2022-08-30T15:59:54.957Z,40.90
2022-08-30T16:02:27.712Z,40.40
2022-08-30T16:04:56.372Z,40.20
2022-08-30T16:07:24.396Z,40.40
2022-08-30T16:09:53.815Z,40.40
2022-08-30T16:12:23.728Z,40.80
2022-08-30T16:14:52.064Z,41.50
2022-08-30T16:17:23.906Z,41.50
2022-08-30T16:19:55.659Z,41.50
2022-08-30T16:22:26.466Z,41.70
2022-08-30T16:24:54.510Z,41.80
2022-08-30T16:27:24.857Z,42.30
2022-08-30T16:29:52.912Z,42.40
2022-08-30T16:32:23.137Z,42.80
2022-08-30T16:34:51.685Z,42.70
2022-08-30T16:37:19.975Z,43.20
2022-08-30T16:39:47.985Z,43.60
2022-08-30T16:42:16.159Z,43.90
2022-08-30T16:44:49.809Z,44.10
2022-08-30T16:47:18.264Z,43.80
2022-08-30T16:49:47.719Z,44.10
2022-08-30T16:52:15.760Z,43.60
2022-08-30T16:54:46.419Z,43.70
2022-08-30T16:57:20.369Z,43.90
2022-08-30T16:59:50.794Z,43.70
2022-08-30T17:02:20.824Z,43.70
2022-08-30T17:04:53.122Z,43.70
2022-08-30T17:07:22.388Z,44.40
2022-08-30T17:09:50.885Z,44.00
2022-08-30T17:12:19.628Z,44.10
2022-08-30T17:14:47.648Z,44.80
2022-08-30T17:17:15.870Z,44.10
2022-08-30T17:19:44.580Z,43.90
2022-08-30T17:22:15.069Z,43.90
2022-08-30T17:24:43.080Z,43.70
2022-08-30T17:27:11.696Z,43.90
2022-08-30T17:29:39.751Z,44.20
2022-08-30T17:32:08.018Z,44.30
2022-08-30T17:34:37.163Z,44.70
2022-08-30T17:37:05.749Z,44.80
2022-08-30T17:39:35.457Z,45.10
2022-08-30T17:42:04.550Z,45.10
2022-08-30T17:44:34.454Z,45.10
2022-08-30T17:47:02.663Z,45.50
2022-08-30T17:49:33.200Z,45.80
2022-08-30T17:52:01.908Z,46.30
2022-08-30T17:54:32.037Z,46.30
2022-08-30T17:57:03.870Z,46.70
2022-08-30T17:59:33.537Z,46.80
2022-08-30T18:02:02.434Z,46.90
2022-08-30T18:04:31.293Z,47.40
2022-08-30T18:06:59.339Z,47.70
2022-08-30T18:09:31.807Z,48.00
2022-08-30T18:12:03.335Z,48.30
2022-08-30T18:14:31.367Z,48.60
2022-08-30T18:16:59.494Z,49.10
2022-08-30T18:19:30.261Z,49.20
2022-08-30T18:21:58.485Z,49.20
2022-08-30T18:24:27.030Z,49.60
2022-08-30T18:26:56.163Z,49.60
2022-08-30T18:29:29.511Z,49.70
2022-08-30T18:32:00.455Z,49.60
2022-08-30T18:34:29.047Z,49.50
2022-08-30T18:36:57.451Z,49.60
2022-08-30T18:39:25.463Z,49.60
2022-08-30T18:41:54.543Z,49.60
2022-08-30T18:44:28.769Z,49.60
2022-08-30T18:47:00.725Z,49.80
2022-08-30T18:49:32.226Z,50.10
2022-08-30T18:52:00.909Z,50.30
2022-08-30T18:54:29.068Z,50.50
2022-08-30T18:56:57.057Z,50.80
2022-08-30T18:59:35.257Z,51.80
2022-08-30T19:02:05.792Z,51.40
2022-08-30T19:04:35.406Z,51.80
2022-08-30T19:07:08.412Z,51.90
2022-08-30T19:09:38.158Z,52.10
2022-08-30T19:12:09.422Z,52.20
2022-08-30T19:14:39.451Z,52.30
2022-08-30T19:17:07.834Z,52.30
2022-08-30T19:19:45.182Z,52.50
2022-08-30T19:22:16.680Z,52.50
2022-08-30T19:24:44.684Z,52.80
2022-08-30T19:27:12.730Z,53.10
2022-08-30T19:29:42.157Z,53.20
2022-08-30T19:32:12.637Z,53.20
2022-08-30T19:34:42.118Z,53.50
2022-08-30T19:37:14.704Z,53.60
2022-08-30T19:39:46.835Z,53.60
2022-08-30T19:42:15.091Z,53.80
2022-08-30T19:44:44.477Z,53.90
2022-08-30T19:47:12.546Z,54.00
2022-08-30T19:49:40.562Z,54.30
2022-08-30T19:52:08.794Z,54.20
2022-08-30T19:54:37.744Z,54.20
2022-08-30T19:57:06.407Z,54.30
2022-08-30T19:59:34.520Z,54.50
2022-08-30T20:02:06.289Z,54.60
2022-08-30T20:04:34.450Z,54.90
2022-08-30T20:07:02.526Z,55.10
2022-08-30T20:09:30.604Z,55.20
2022-08-30T20:11:59.353Z,55.30
2022-08-30T20:14:27.574Z,55.40
2022-08-30T20:16:55.902Z,55.60
2022-08-30T20:19:27.644Z,55.80
2022-08-30T20:21:59.343Z,56.10
2022-08-30T20:27:09.676Z,56.10
2022-08-30T20:29:40.175Z,56.10
2022-08-30T20:32:08.526Z,56.40
2022-08-30T20:34:39.541Z,57.00
2022-08-30T20:37:09.780Z,57.30
2022-08-30T20:39:39.074Z,57.60
2022-08-30T20:42:07.633Z,58.10
2022-08-30T20:44:35.851Z,58.20
2022-08-30T20:47:05.098Z,58.40
2022-08-30T20:49:33.399Z,58.70
2022-08-30T20:52:04.872Z,58.80
2022-08-30T20:54:33.172Z,59.10
2022-08-30T20:57:01.188Z,59.40
2022-08-30T20:59:30.831Z,59.40
2022-08-30T21:01:59.718Z,59.60
2022-08-30T21:04:27.992Z,59.90
2022-08-30T21:06:56.057Z,60.10
2022-08-30T21:09:25.527Z,60.10
2022-08-30T21:11:53.631Z,60.60
2022-08-30T21:14:21.912Z,61.00
2022-08-30T21:16:50.219Z,60.90
2022-08-30T21:19:18.316Z,61.00
2022-08-30T21:21:46.398Z,61.00
2022-08-30T21:24:14.455Z,61.40
2022-08-30T21:26:44.039Z,61.30
2022-08-30T21:29:12.891Z,61.30
2022-08-30T21:31:40.917Z,61.50
2022-08-30T21:34:16.822Z,61.70
2022-08-30T21:36:48.332Z,61.50
2022-08-30T21:39:20.175Z,62.60
2022-08-30T21:41:52.196Z,62.00
2022-08-30T21:44:22.440Z,62.20
2022-08-30T21:46:52.192Z,62.50
2022-08-30T21:49:21.955Z,62.70
2022-08-30T21:51:51.550Z,63.20
2022-08-30T21:54:20.035Z,63.50
2022-08-30T21:56:51.726Z,63.60
2022-08-30T21:59:20.487Z,64.00
2022-08-30T22:01:49.457Z,64.20
2022-08-30T22:04:17.635Z,64.50
2022-08-30T22:06:50.058Z,64.40
2022-08-30T22:09:20.561Z,64.70
2022-08-30T22:11:50.953Z,65.00
2022-08-30T22:14:20.854Z,65.10
2022-08-30T22:16:49.430Z,65.30
2022-08-30T22:19:22.955Z,65.30
2022-08-30T22:21:52.103Z,65.70
2022-08-30T22:24:22.430Z,66.00
2022-08-30T22:26:51.787Z,66.30
2022-08-30T22:29:19.826Z,66.70
2022-08-30T22:31:47.903Z,67.20
2022-08-30T22:34:16.197Z,67.70
2022-08-30T22:36:44.575Z,68.00
2022-08-30T22:39:13.513Z,68.30
2022-08-30T22:41:42.941Z,68.70
2022-08-30T22:44:12.799Z,68.90
2022-08-30T22:46:41.260Z,69.50
2022-08-30T22:49:11.152Z,69.40
2022-08-30T22:51:40.649Z,69.70
2022-08-30T22:54:09.887Z,69.80
2022-08-30T22:56:39.457Z,70.20
2022-08-30T22:59:08.685Z,70.40
2022-08-30T23:01:40.665Z,70.80
2022-08-30T23:04:09.460Z,70.90
2022-08-30T23:06:37.702Z,70.90
2022-08-30T23:09:06.938Z,71.40
2022-08-30T23:11:35.600Z,71.40
2022-08-30T23:14:04.399Z,71.80
2022-08-30T23:16:32.790Z,71.90
2022-08-30T23:19:02.250Z,71.80
2022-08-30T23:21:31.570Z,72.00
2022-08-30T23:24:18.202Z,72.20
2022-08-30T23:27:05.132Z,72.50
2022-08-30T23:29:51.511Z,72.70
2022-08-30T23:32:37.561Z,72.80
2022-08-30T23:35:29.361Z,73.20
2022-08-30T23:38:15.644Z,73.40
2022-08-30T23:41:01.241Z,73.60
2022-08-30T23:43:46.820Z,73.70
2022-08-30T23:46:32.174Z,73.80
2022-08-30T23:49:17.669Z,74.20
2022-08-30T23:52:04.545Z,74.20
2022-08-30T23:54:50.006Z,74.50
2022-08-30T23:57:35.552Z,74.80
